sensor_id;sensor_type;location;lat;lon;timestamp;pressure;altitude;pressure_sealevel;temperature;humidity
68169;BME280;54981;50.206;15.978;2023-01-27T00:01:58;99075.50;;;-0.32;100.00
68169;BME280;54981;50.206;15.978;2023-01-27T00:04:58;99071.16;;;-0.33;100.00
68169;BME280;54981;50.206;15.978;2023-01-27T00:07:59;99071.16;;;-0.34;100.00
68169;BME280;54981;50.206;15.978;2023-01-27T00:11:00;99068.53;;;-0.33;100.00
68169;BME280;54981;50.206;15.978;2023-01-27T00:14:19;99072.00;;;-0.34;100.00
68169;BME280;54981;50.206;15.978;2023-01-27T00:17:19;99068.53;;;-0.34;100.00
68169;BME280;54981;50.206;15.978;2023-01-27T00:20:20;99063.34;;;-0.36;100.00
68169;BME280;54981;50.206;15.978;2023-01-27T00:23:39;99075.53;;;-0.36;100.00
68169;BME280;54981;50.206;15.978;2023-01-27T00:26:58;99077.28;;;-0.37;100.00
68169;BME280;54981;50.206;15.978;2023-01-27T00:29:58;99081.66;;;-0.36;100.00
68169;BME280;54981;50.206;15.978;2023-01-27T00:32:58;99084.28;;;-0.36;100.00
68169;BME280;54981;50.206;15.978;2023-01-27T00:36:17;99081.63;;;-0.34;100.00
68169;BME280;54981;50.206;15.978;2023-01-27T00:39:17;99072.91;;;-0.35;100.00
68169;BME280;54981;50.206;15.978;2023-01-27T00:42:18;99076.41;;;-0.36;100.00
68169;BME280;54981;50.206;15.978;2023-01-27T00:45:18;99069.44;;;-0.35;100.00
68169;BME280;54981;50.206;15.978;2023-01-27T00:48:37;99066.81;;;-0.37;100.00
68169;BME280;54981;50.206;15.978;2023-01-27T00:51:37;99067.69;;;-0.36;100.00
68169;BME280;54981;50.206;15.978;2023-01-27T00:54:38;99065.06;;;-0.35;100.00
68169;BME280;54981;50.206;15.978;2023-01-27T00:57:38;99070.25;;;-0.32;100.00
68169;BME280;54981;50.206;15.978;2023-01-27T01:00:39;99072.00;;;-0.31;100.00
68169;BME280;54981;50.206;15.978;2023-01-27T01:03:39;99071.97;;;-0.29;100.00
68169;BME280;54981;50.206;15.978;2023-01-27T01:06:40;99075.41;;;-0.23;100.00
68169;BME280;54981;50.206;15.978;2023-01-27T01:09:40;99075.41;;;-0.23;100.00
68169;BME280;54981;50.206;15.978;2023-01-27T01:12:40;99074.56;;;-0.22;100.00
68169;BME280;54981;50.206;15.978;2023-01-27T01:15:41;99067.56;;;-0.21;100.00
68169;BME280;54981;50.206;15.978;2023-01-27T01:18:42;99066.69;;;-0.22;100.00
68169;BME280;54981;50.206;15.978;2023-01-27T01:21:42;99067.56;;;-0.21;100.00
68169;BME280;54981;50.206;15.978;2023-01-27T01:24:43;99071.03;;;-0.22;100.00
68169;BME280;54981;50.206;15.978;2023-01-27T01:27:44;99053.63;;;-0.22;100.00
68169;BME280;54981;50.206;15.978;2023-01-27T01:30:44;99054.47;;;-0.21;100.00
68169;BME280;54981;50.206;15.978;2023-01-27T01:33:46;99047.50;;;-0.20;100.00
68169;BME280;54981;50.206;15.978;2023-01-27T01:36:46;99037.91;;;-0.22;100.00
68169;BME280;54981;50.206;15.978;2023-01-27T01:39:47;99036.97;;;-0.17;100.00
68169;BME280;54981;50.206;15.978;2023-01-27T01:42:56;99049.22;;;-0.19;100.00
68169;BME280;54981;50.206;15.978;2023-01-27T01:45:58;99042.25;;;-0.19;100.00
68169;BME280;54981;50.206;15.978;2023-01-27T01:49:00;99038.75;;;-0.19;100.00
68169;BME280;54981;50.206;15.978;2023-01-27T01:52:07;99032.72;;;-0.26;100.00
68169;BME280;54981;50.206;15.978;2023-01-27T01:55:10;99051.88;;;-0.24;100.00
68169;BME280;54981;50.206;15.978;2023-01-27T01:58:11;99043.19;;;-0.26;100.00
68169;BME280;54981;50.206;15.978;2023-01-27T02:01:13;99037.06;;;-0.27;100.00
68169;BME280;54981;50.206;15.978;2023-01-27T02:04:18;99036.25;;;-0.32;100.00
68169;BME280;54981;50.206;15.978;2023-01-27T02:11:08;99028.41;;;-0.32;100.00
68169;BME280;54981;50.206;15.978;2023-01-27T02:14:10;99028.44;;;-0.33;100.00
68169;BME280;54981;50.206;15.978;2023-01-27T02:17:13;99023.19;;;-0.33;100.00
68169;BME280;54981;50.206;15.978;2023-01-27T02:23:32;99028.44;;;-0.35;100.00
68169;BME280;54981;50.206;15.978;2023-01-27T02:26:41;99022.31;;;-0.32;100.00
68169;BME280;54981;50.206;15.978;2023-01-27T02:29:42;99016.22;;;-0.31;100.00
68169;BME280;54981;50.206;15.978;2023-01-27T02:32:42;99010.91;;;-0.27;100.00
68169;BME280;54981;50.206;15.978;2023-01-27T02:36:11;99020.53;;;-0.29;100.00
68169;BME280;54981;50.206;15.978;2023-01-27T02:39:14;99022.28;;;-0.29;100.00
68169;BME280;54981;50.206;15.978;2023-01-27T02:42:16;99030.16;;;-0.31;100.00
68169;BME280;54981;50.206;15.978;2023-01-27T02:45:18;99015.31;;;-0.30;100.00
68169;BME280;54981;50.206;15.978;2023-01-27T02:48:18;99021.44;;;-0.31;100.00
68169;BME280;54981;50.206;15.978;2023-01-27T02:51:19;99030.16;;;-0.34;100.00
68169;BME280;54981;50.206;15.978;2023-01-27T02:54:19;99030.16;;;-0.34;100.00
68169;BME280;54981;50.206;15.978;2023-01-27T02:57:20;99021.38;;;-0.24;100.00
68169;BME280;54981;50.206;15.978;2023-01-27T03:00:20;99021.31;;;-0.20;100.00
68169;BME280;54981;50.206;15.978;2023-01-27T03:03:20;99025.69;;;-0.24;100.00
68169;BME280;54981;50.206;15.978;2023-01-27T03:06:21;99026.59;;;-0.24;100.00
68169;BME280;54981;50.206;15.978;2023-01-27T03:09:21;99023.09;;;-0.23;100.00
68169;BME280;54981;50.206;15.978;2023-01-27T03:12:21;99024.84;;;-0.22;100.00
68169;BME280;54981;50.206;15.978;2023-01-27T03:15:22;99028.31;;;-0.21;100.00
68169;BME280;54981;50.206;15.978;2023-01-27T03:18:41;99023.09;;;-0.23;100.00
68169;BME280;54981;50.206;15.978;2023-01-27T03:21:46;99021.38;;;-0.27;100.00
68169;BME280;54981;50.206;15.978;2023-01-27T03:24:50;99028.41;;;-0.32;100.00
68169;BME280;54981;50.206;15.978;2023-01-27T03:27:50;99025.78;;;-0.32;100.00
68169;BME280;54981;50.206;15.978;2023-01-27T03:30:50;99033.63;;;-0.32;100.00
68169;BME280;54981;50.206;15.978;2023-01-27T03:33:51;99028.41;;;-0.32;100.00
68169;BME280;54981;50.206;15.978;2023-01-27T03:36:52;99028.41;;;-0.32;100.00
68169;BME280;54981;50.206;15.978;2023-01-27T03:40:12;99031.03;;;-0.32;100.00
68169;BME280;54981;50.206;15.978;2023-01-27T03:43:31;99035.38;;;-0.34;100.00
68169;BME280;54981;50.206;15.978;2023-01-27T03:46:50;99031.91;;;-0.31;100.00
68169;BME280;54981;50.206;15.978;2023-01-27T03:49:50;99024.94;;;-0.34;100.00
68169;BME280;54981;50.206;15.978;2023-01-27T03:52:51;99028.44;;;-0.35;100.00
68169;BME280;54981;50.206;15.978;2023-01-27T03:56:04;99025.81;;;-0.36;100.00
68169;BME280;54981;50.206;15.978;2023-01-27T03:59:05;99022.34;;;-0.37;100.00
68169;BME280;54981;50.206;15.978;2023-01-27T04:02:05;99031.94;;;-0.36;100.00
68169;BME280;54981;50.206;15.978;2023-01-27T04:05:24;99035.44;;;-0.37;100.00
68169;BME280;54981;50.206;15.978;2023-01-27T04:08:43;99031.06;;;-0.35;100.00
68169;BME280;54981;50.206;15.978;2023-01-27T04:11:44;99036.28;;;-0.33;100.00
68169;BME280;54981;50.206;15.978;2023-01-27T04:14:59;99037.16;;;-0.33;100.00
68169;BME280;54981;50.206;15.978;2023-01-27T04:18:00;99038.00;;;-0.34;100.00
68169;BME280;54981;50.206;15.978;2023-01-27T04:21:00;99040.63;;;-0.34;100.00
68169;BME280;54981;50.206;15.978;2023-01-27T04:24:01;99046.75;;;-0.35;100.00
68169;BME280;54981;50.206;15.978;2023-01-27T04:27:07;99044.09;;;-0.32;100.00
68169;BME280;54981;50.206;15.978;2023-01-27T04:30:08;99043.22;;;-0.31;100.00
68169;BME280;54981;50.206;15.978;2023-01-27T04:33:08;99038.03;;;-0.35;100.00
68169;BME280;54981;50.206;15.978;2023-01-27T04:36:10;99039.75;;;-0.34;100.00
68169;BME280;54981;50.206;15.978;2023-01-27T04:39:12;99046.72;;;-0.30;100.00
68169;BME280;54981;50.206;15.978;2023-01-27T04:42:13;99051.09;;;-0.34;100.00
68169;BME280;54981;50.206;15.978;2023-01-27T04:45:13;99058.06;;;-0.33;100.00
68169;BME280;54981;50.206;15.978;2023-01-27T04:48:14;99048.47;;;-0.34;100.00
68169;BME280;54981;50.206;15.978;2023-01-27T04:51:14;99058.09;;;-0.36;100.00
68169;BME280;54981;50.206;15.978;2023-01-27T04:54:15;99052.88;;;-0.37;100.00
68169;BME280;54981;50.206;15.978;2023-01-27T04:57:15;99058.13;;;-0.39;100.00
68169;BME280;54981;50.206;15.978;2023-01-27T05:00:16;99065.09;;;-0.39;100.00
68169;BME280;54981;50.206;15.978;2023-01-27T05:03:17;99065.97;;;-0.39;100.00
68169;BME280;54981;50.206;15.978;2023-01-27T05:06:17;99063.34;;;-0.39;100.00
68169;BME280;54981;50.206;15.978;2023-01-27T05:09:18;99072.09;;;-0.41;100.00
68169;BME280;54981;50.206;15.978;2023-01-27T05:12:18;99071.22;;;-0.42;100.00
68169;BME280;54981;50.206;15.978;2023-01-27T05:15:18;99070.38;;;-0.43;100.00
68169;BME280;54981;50.206;15.978;2023-01-27T05:18:19;99072.13;;;-0.43;100.00
68169;BME280;54981;50.206;15.978;2023-01-27T05:21:22;99073.84;;;-0.42;100.00
68169;BME280;54981;50.206;15.978;2023-01-27T05:24:22;99075.59;;;-0.43;100.00
68169;BME280;54981;50.206;15.978;2023-01-27T05:27:23;99081.69;;;-0.42;100.00
68169;BME280;54981;50.206;15.978;2023-01-27T05:30:23;99079.94;;;-0.40;100.00
68169;BME280;54981;50.206;15.978;2023-01-27T05:33:24;99087.78;;;-0.40;100.00
68169;BME280;54981;50.206;15.978;2023-01-27T05:36:25;99081.66;;;-0.39;100.00
68169;BME280;54981;50.206;15.978;2023-01-27T05:39:25;99085.09;;;-0.32;100.00
68169;BME280;54981;50.206;15.978;2023-01-27T05:42:26;99089.47;;;-0.34;100.00
68169;BME280;54981;50.206;15.978;2023-01-27T05:45:26;99092.94;;;-0.31;100.00
68169;BME280;54981;50.206;15.978;2023-01-27T05:48:26;99091.19;;;-0.32;100.00
68169;BME280;54981;50.206;15.978;2023-01-27T05:51:32;99086.84;;;-0.33;100.00
68169;BME280;54981;50.206;15.978;2023-01-27T05:54:32;99093.84;;;-0.33;100.00
68169;BME280;54981;50.206;15.978;2023-01-27T05:57:33;99093.00;;;-0.38;100.00
68169;BME280;54981;50.206;15.978;2023-01-27T06:00:33;99093.88;;;-0.39;100.00
68169;BME280;54981;50.206;15.978;2023-01-27T06:03:34;99094.69;;;-0.34;100.00
68169;BME280;54981;50.206;15.978;2023-01-27T06:06:34;99093.84;;;-0.36;100.00
68169;BME280;54981;50.206;15.978;2023-01-27T06:09:35;99093.00;;;-0.40;100.00
68169;BME280;54981;50.206;15.978;2023-01-27T06:12:37;99106.94;;;-0.41;100.00
68169;BME280;54981;50.206;15.978;2023-01-27T06:15:43;99100.00;;;-0.42;100.00
68169;BME280;54981;50.206;15.978;2023-01-27T06:18:44;99106.13;;;-0.43;100.00
68169;BME280;54981;50.206;15.978;2023-01-27T06:21:45;99107.00;;;-0.44;100.00
68169;BME280;54981;50.206;15.978;2023-01-27T06:24:45;99110.47;;;-0.42;100.00
68169;BME280;54981;50.206;15.978;2023-01-27T06:27:46;99108.75;;;-0.43;100.00
68169;BME280;54981;50.206;15.978;2023-01-27T06:30:47;99113.97;;;-0.43;100.00
68169;BME280;54981;50.206;15.978;2023-01-27T06:33:48;99111.34;;;-0.43;100.00
68169;BME280;54981;50.206;15.978;2023-01-27T06:36:52;99101.72;;;-0.41;100.00
68169;BME280;54981;50.206;15.978;2023-01-27T06:39:52;99109.56;;;-0.41;100.00
68169;BME280;54981;50.206;15.978;2023-01-27T06:42:52;99109.59;;;-0.43;100.00
68169;BME280;54981;50.206;15.978;2023-01-27T06:45:53;99104.38;;;-0.44;100.00
68169;BME280;54981;50.206;15.978;2023-01-27T06:48:54;99105.25;;;-0.47;100.00
68169;BME280;54981;50.206;15.978;2023-01-27T06:51:54;99108.75;;;-0.45;100.00
68169;BME280;54981;50.206;15.978;2023-01-27T06:54:55;99107.88;;;-0.45;100.00
68169;BME280;54981;50.206;15.978;2023-01-27T06:57:55;99104.41;;;-0.46;100.00
68169;BME280;54981;50.206;15.978;2023-01-27T07:00:56;99115.72;;;-0.45;100.00
68169;BME280;54981;50.206;15.978;2023-01-27T07:03:56;99109.63;;;-0.47;100.00
68169;BME280;54981;50.206;15.978;2023-01-27T07:06:56;99116.59;;;-0.46;100.00
68169;BME280;54981;50.206;15.978;2023-01-27T07:09:57;99112.25;;;-0.47;100.00
68169;BME280;54981;50.206;15.978;2023-01-27T07:13:07;99116.63;;;-0.48;100.00
68169;BME280;54981;50.206;15.978;2023-01-27T07:16:08;99108.78;;;-0.49;100.00
68169;BME280;54981;50.206;15.978;2023-01-27T07:19:09;99121.84;;;-0.48;100.00
68169;BME280;54981;50.206;15.978;2023-01-27T07:22:09;99128.81;;;-0.47;100.00
68169;BME280;54981;50.206;15.978;2023-01-27T07:25:09;99118.34;;;-0.48;100.00
68169;BME280;54981;50.206;15.978;2023-01-27T07:28:10;99115.72;;;-0.48;100.00
68169;BME280;54981;50.206;15.978;2023-01-27T07:31:10;99114.91;;;-0.50;100.00
68169;BME280;54981;50.206;15.978;2023-01-27T07:34:10;99113.16;;;-0.50;100.00
68169;BME280;54981;50.206;15.978;2023-01-27T07:37:11;99111.34;;;-0.46;100.00
68169;BME280;54981;50.206;15.978;2023-01-27T07:40:12;99101.78;;;-0.47;100.00
68169;BME280;54981;50.206;15.978;2023-01-27T07:43:12;99106.16;;;-0.48;100.00
68169;BME280;54981;50.206;15.978;2023-01-27T07:46:13;99112.22;;;-0.43;100.00
68169;BME280;54981;50.206;15.978;2023-01-27T07:49:13;99104.38;;;-0.43;100.00
68169;BME280;54981;50.206;15.978;2023-01-27T07:52:14;99108.69;;;-0.37;100.00
68169;BME280;54981;50.206;15.978;2023-01-27T07:55:14;99104.34;;;-0.38;100.00
68169;BME280;54981;50.206;15.978;2023-01-27T07:58:15;99101.72;;;-0.38;100.00
68169;BME280;54981;50.206;15.978;2023-01-27T08:01:15;99104.25;;;-0.32;100.00
68169;BME280;54981;50.206;15.978;2023-01-27T08:04:16;99098.19;;;-0.34;100.00
68169;BME280;54981;50.206;15.978;2023-01-27T08:07:16;99097.31;;;-0.31;100.00
68169;BME280;54981;50.206;15.978;2023-01-27T08:10:17;99105.16;;;-0.33;100.00
68169;BME280;54981;50.206;15.978;2023-01-27T08:13:18;99101.66;;;-0.32;100.00
68169;BME280;54981;50.206;15.978;2023-01-27T08:16:18;99100.75;;;-0.29;100.00
68169;BME280;54981;50.206;15.978;2023-01-27T08:19:18;99095.53;;;-0.29;100.00
68169;BME280;54981;50.206;15.978;2023-01-27T08:22:19;99106.84;;;-0.27;100.00
68169;BME280;54981;50.206;15.978;2023-01-27T08:25:22;99108.59;;;-0.26;100.00
68169;BME280;54981;50.206;15.978;2023-01-27T08:28:24;99118.13;;;-0.22;100.00
68169;BME280;54981;50.206;15.978;2023-01-27T08:31:25;99111.19;;;-0.22;100.00
68169;BME280;54981;50.206;15.978;2023-01-27T08:34:25;99109.38;;;-0.19;100.00
68169;BME280;54981;50.206;15.978;2023-01-27T08:37:26;99111.09;;;-0.17;100.00
68169;BME280;54981;50.206;15.978;2023-01-27T08:40:26;99117.22;;;-0.16;100.00
68169;BME280;54981;50.206;15.978;2023-01-27T08:43:26;99111.09;;;-0.15;100.00
68169;BME280;54981;50.206;15.978;2023-01-27T08:46:27;99118.91;;;-0.12;100.00
68169;BME280;54981;50.206;15.978;2023-01-27T08:49:27;99111.06;;;-0.11;100.00
68169;BME280;54981;50.206;15.978;2023-01-27T08:52:28;99118.91;;;-0.09;100.00
68169;BME280;54981;50.206;15.978;2023-01-27T08:55:31;99121.53;;;-0.09;100.00
68169;BME280;54981;50.206;15.978;2023-01-27T08:58:32;99126.78;;;-0.09;100.00
68169;BME280;54981;50.206;15.978;2023-01-27T09:01:32;99132.84;;;-0.07;100.00
68169;BME280;54981;50.206;15.978;2023-01-27T09:04:32;99134.59;;;-0.06;100.00
68169;BME280;54981;50.206;15.978;2023-01-27T09:07:37;99134.59;;;-0.06;100.00
68169;BME280;54981;50.206;15.978;2023-01-27T09:10:38;99132.81;;;-0.04;100.00
68169;BME280;54981;50.206;15.978;2023-01-27T09:13:40;99137.16;;;-0.02;100.00
68169;BME280;54981;50.206;15.978;2023-01-27T09:16:40;99144.13;;;-0.01;100.00
68169;BME280;54981;50.206;15.978;2023-01-27T09:19:40;99141.50;;;-0.01;100.00
68169;BME280;54981;50.206;15.978;2023-01-27T09:22:41;99141.50;;;0.01;100.00
68169;BME280;54981;50.206;15.978;2023-01-27T09:25:41;99144.97;;;0.03;100.00
68169;BME280;54981;50.206;15.978;2023-01-27T09:28:42;99155.44;;;0.03;100.00
68169;BME280;54981;50.206;15.978;2023-01-27T09:31:42;99159.81;;;0.01;100.00
68169;BME280;54981;50.206;15.978;2023-01-27T09:34:42;99161.53;;;0.04;100.00
68169;BME280;54981;50.206;15.978;2023-01-27T09:37:51;99164.16;;;0.05;100.00
68169;BME280;54981;50.206;15.978;2023-01-27T09:47:37;99164.16;;;0.05;100.00
68169;BME280;54981;50.206;15.978;2023-01-27T09:50:51;99172.91;;;0.01;100.00
68169;BME280;54981;50.206;15.978;2023-01-27T10:04:34;99182.50;;;0.01;100.00
68169;BME280;54981;50.206;15.978;2023-01-27T10:14:28;99169.44;;;0.01;100.00
68169;BME280;54981;50.206;15.978;2023-01-27T10:27:39;99166.00;;;-0.06;100.00
68169;BME280;54981;50.206;15.978;2023-01-27T10:31:00;99160.72;;;-0.02;100.00
68169;BME280;54981;50.206;15.978;2023-01-27T10:34:09;99168.59;;;-0.05;100.00
68169;BME280;54981;50.206;15.978;2023-01-27T10:37:22;99166.81;;;-0.03;100.00
68169;BME280;54981;50.206;15.978;2023-01-27T10:43:39;99162.41;;;0.04;100.00
68169;BME280;54981;50.206;15.978;2023-01-27T10:50:57;99169.31;;;0.13;100.00
68169;BME280;54981;50.206;15.978;2023-01-27T10:53:43;99162.34;;;0.10;100.00
68169;BME280;54981;50.206;15.978;2023-01-27T10:56:52;99159.75;;;0.09;100.00
68169;BME280;54981;50.206;15.978;2023-01-27T11:00:01;99164.97;;;0.09;100.00
68169;BME280;54981;50.206;15.978;2023-01-27T11:06:21;99167.56;;;0.13;100.00
68169;BME280;54981;50.206;15.978;2023-01-27T11:09:29;99156.19;;;0.16;100.00
68169;BME280;54981;50.206;15.978;2023-01-27T11:12:35;99161.44;;;0.16;100.00
68169;BME280;54981;50.206;15.978;2023-01-27T11:15:36;99160.59;;;0.12;100.00
68169;BME280;54981;50.206;15.978;2023-01-27T11:18:37;99157.97;;;0.11;100.00
68169;BME280;54981;50.206;15.978;2023-01-27T11:21:38;99152.78;;;0.06;100.00
68169;BME280;54981;50.206;15.978;2023-01-27T11:24:46;99151.03;;;0.08;100.00
68169;BME280;54981;50.206;15.978;2023-01-27T11:31:44;99146.66;;;0.07;100.00
68169;BME280;54981;50.206;15.978;2023-01-27T11:34:53;99143.13;;;0.11;100.00
68169;BME280;54981;50.206;15.978;2023-01-27T11:37:56;99141.38;;;0.13;100.00
68169;BME280;54981;50.206;15.978;2023-01-27T11:40:57;99153.69;;;0.05;100.00
68169;BME280;54981;50.206;15.978;2023-01-27T11:43:59;99153.66;;;0.07;100.00
68169;BME280;54981;50.206;15.978;2023-01-27T11:47:01;99156.31;;;0.05;100.00
68169;BME280;54981;50.206;15.978;2023-01-27T11:50:04;99152.88;;;0.00;100.00
68169;BME280;54981;50.206;15.978;2023-01-27T11:53:26;99155.47;;;0.00;100.00
68169;BME280;54981;50.206;15.978;2023-01-27T11:56:28;99158.09;;;0.00;100.00
68169;BME280;54981;50.206;15.978;2023-01-27T11:59:37;99155.47;;;0.00;100.00
68169;BME280;54981;50.206;15.978;2023-01-27T12:02:41;99154.59;;;0.01;100.00
68169;BME280;54981;50.206;15.978;2023-01-27T12:06:04;99152.81;;;0.02;100.00
68169;BME280;54981;50.206;15.978;2023-01-27T12:09:30;99148.44;;;0.02;100.00
68169;BME280;54981;50.206;15.978;2023-01-27T12:12:35;99147.59;;;0.02;100.00
68169;BME280;54981;50.206;15.978;2023-01-27T12:15:36;99141.50;;;0.03;100.00
68169;BME280;54981;50.206;15.978;2023-01-27T12:18:52;99151.97;;;0.01;100.00
68169;BME280;54981;50.206;15.978;2023-01-27T12:22:27;99144.13;;;0.01;100.00
68169;BME280;54981;50.206;15.978;2023-01-27T12:25:42;99147.63;;;-0.02;100.00
68169;BME280;54981;50.206;15.978;2023-01-27T12:28:51;99150.25;;;-0.02;100.00
68169;BME280;54981;50.206;15.978;2023-01-27T12:31:54;99145.00;;;0.00;100.00
68169;BME280;54981;50.206;15.978;2023-01-27T12:34:56;99155.47;;;0.00;100.00
68169;BME280;54981;50.206;15.978;2023-01-27T12:38:05;99148.50;;;-0.01;100.00
68169;BME280;54981;50.206;15.978;2023-01-27T12:41:08;99145.88;;;0.01;100.00
68169;BME280;54981;50.206;15.978;2023-01-27T12:44:19;99137.97;;;0.05;100.00
68169;BME280;54981;50.206;15.978;2023-01-27T12:47:27;99144.03;;;0.09;100.00
68169;BME280;54981;50.206;15.978;2023-01-27T12:50:31;99146.66;;;0.07;100.00
68169;BME280;54981;50.206;15.978;2023-01-27T12:53:32;99142.31;;;0.08;100.00
68169;BME280;54981;50.206;15.978;2023-01-27T12:56:33;99149.22;;;0.13;100.00
68169;BME280;54981;50.206;15.978;2023-01-27T12:59:34;99148.34;;;0.16;100.00
68169;BME280;54981;50.206;15.978;2023-01-27T13:02:43;99149.22;;;0.13;100.00
68169;BME280;54981;50.206;15.978;2023-01-27T13:05:44;99147.47;;;0.15;100.00
68169;BME280;54981;50.206;15.978;2023-01-27T13:08:46;99146.63;;;0.13;100.00
68169;BME280;54981;50.206;15.978;2023-01-27T13:11:48;99145.75;;;0.13;100.00
68169;BME280;54981;50.206;15.978;2023-01-27T13:14:52;99151.88;;;0.10;100.00
68169;BME280;54981;50.206;15.978;2023-01-27T13:17:54;99150.13;;;0.11;100.00
68169;BME280;54981;50.206;15.978;2023-01-27T13:21:06;99151.84;;;0.13;100.00
68169;BME280;54981;50.206;15.978;2023-01-27T13:24:15;99151.88;;;0.10;100.00
68169;BME280;54981;50.206;15.978;2023-01-27T13:27:21;99147.56;;;0.08;100.00
68169;BME280;54981;50.206;15.978;2023-01-27T13:30:29;99151.06;;;0.05;100.00
68169;BME280;54981;50.206;15.978;2023-01-27T13:33:51;99148.44;;;0.05;100.00
68169;BME280;54981;50.206;15.978;2023-01-27T13:37:03;99153.69;;;0.05;100.00
68169;BME280;54981;50.206;15.978;2023-01-27T13:46:31;99164.16;;;0.02;100.00
68169;BME280;54981;50.206;15.978;2023-01-27T13:49:38;99157.19;;;0.01;100.00
68169;BME280;54981;50.206;15.978;2023-01-27T13:52:40;99160.72;;;0.00;100.00
68169;BME280;54981;50.206;15.978;2023-01-27T14:02:31;99172.91;;;0.01;100.00
68169;BME280;54981;50.206;15.978;2023-01-27T14:05:50;99176.41;;;0.00;100.00
68169;BME280;54981;50.206;15.978;2023-01-27T14:09:06;99172.91;;;0.01;100.00
68169;BME280;54981;50.206;15.978;2023-01-27T14:12:28;99184.28;;;0.00;100.00
68169;BME280;54981;50.206;15.978;2023-01-27T14:15:44;99185.13;;;-0.01;100.00
68169;BME280;54981;50.206;15.978;2023-01-27T14:18:49;99191.22;;;-0.01;100.00
68169;BME280;54981;50.206;15.978;2023-01-27T14:22:02;99184.28;;;0.00;100.00
68169;BME280;54981;50.206;15.978;2023-01-27T14:25:41;99187.75;;;-0.01;100.00
68169;BME280;54981;50.206;15.978;2023-01-27T14:29:09;99190.38;;;-0.01;100.00
68169;BME280;54981;50.206;15.978;2023-01-27T14:32:29;99187.75;;;-0.03;100.00
68169;BME280;54981;50.206;15.978;2023-01-27T14:39:05;99191.25;;;-0.04;100.00
68169;BME280;54981;50.206;15.978;2023-01-27T14:42:24;99188.66;;;-0.02;100.00
68169;BME280;54981;50.206;15.978;2023-01-27T14:45:35;99190.38;;;-0.01;100.00
68169;BME280;54981;50.206;15.978;2023-01-27T14:51:52;99183.41;;;-0.04;100.00
68169;BME280;54981;50.206;15.978;2023-01-27T15:18:56;99185.13;;;-0.03;100.00
68169;BME280;54981;50.206;15.978;2023-01-27T15:22:33;99191.25;;;-0.04;100.00
68169;BME280;54981;50.206;15.978;2023-01-27T15:25:45;99193.03;;;-0.04;100.00
68169;BME280;54981;50.206;15.978;2023-01-27T15:28:47;99191.25;;;-0.02;100.00
68169;BME280;54981;50.206;15.978;2023-01-27T15:32:10;99187.72;;;0.05;100.00
68169;BME280;54981;50.206;15.978;2023-01-27T15:35:31;99199.09;;;-0.01;100.00
68169;BME280;54981;50.206;15.978;2023-01-27T15:38:33;99200.84;;;-0.01;100.00
68169;BME280;54981;50.206;15.978;2023-01-27T15:41:53;99195.59;;;-0.01;100.00
68169;BME280;54981;50.206;15.978;2023-01-27T15:45:24;99196.47;;;-0.01;100.00
68169;BME280;54981;50.206;15.978;2023-01-27T15:48:31;99198.22;;;-0.03;100.00
68169;BME280;54981;50.206;15.978;2023-01-27T15:51:36;99197.31;;;0.02;100.00
68169;BME280;54981;50.206;15.978;2023-01-27T15:54:39;99198.22;;;-0.01;100.00
68169;BME280;54981;50.206;15.978;2023-01-27T15:57:40;99202.59;;;0.00;100.00
68169;BME280;54981;50.206;15.978;2023-01-27T16:00:41;99201.63;;;0.07;100.00
68169;BME280;54981;50.206;15.978;2023-01-27T16:03:49;99205.16;;;0.05;100.00
68169;BME280;54981;50.206;15.978;2023-01-27T16:06:53;99207.75;;;0.06;100.00
68169;BME280;54981;50.206;15.978;2023-01-27T16:10:02;99210.28;;;0.18;100.00
68169;BME280;54981;50.206;15.978;2023-01-27T16:13:26;99206.03;;;0.05;100.00
68169;BME280;54981;50.206;15.978;2023-01-27T16:16:31;99213.78;;;0.16;100.00
68169;BME280;54981;50.206;15.978;2023-01-27T16:19:37;99218.19;;;0.09;100.00
68169;BME280;54981;50.206;15.978;2023-01-27T16:22:43;99224.38;;;0.02;100.00
68169;BME280;54981;50.206;15.978;2023-01-27T16:25:49;99219.19;;;-0.04;100.00
68169;BME280;54981;50.206;15.978;2023-01-27T16:28:58;99224.41;;;0.01;100.00
68169;BME280;54981;50.206;15.978;2023-01-27T16:32:13;99223.56;;;-0.06;100.00
68169;BME280;54981;50.206;15.978;2023-01-27T16:35:18;99232.28;;;-0.04;100.00
68169;BME280;54981;50.206;15.978;2023-01-27T16:38:28;99234.00;;;-0.03;100.00
68169;BME280;54981;50.206;15.978;2023-01-27T16:41:36;99236.69;;;-0.09;100.00
68169;BME280;54981;50.206;15.978;2023-01-27T16:44:58;99241.91;;;-0.11;100.00
68169;BME280;54981;50.206;15.978;2023-01-27T16:48:02;99243.69;;;-0.13;100.00
68169;BME280;54981;50.206;15.978;2023-01-27T16:51:08;99242.78;;;-0.09;100.00
68169;BME280;54981;50.206;15.978;2023-01-27T16:54:30;99248.06;;;-0.16;100.00
68169;BME280;54981;50.206;15.978;2023-01-27T16:57:34;99249.84;;;-0.18;100.00
68169;BME280;54981;50.206;15.978;2023-01-27T17:00:35;99245.47;;;-0.19;100.00
68169;BME280;54981;50.206;15.978;2023-01-27T17:03:37;99246.34;;;-0.20;100.00
68169;BME280;54981;50.206;15.978;2023-01-27T17:06:40;99251.59;;;-0.20;100.00
68169;BME280;54981;50.206;15.978;2023-01-27T17:09:54;99253.34;;;-0.24;100.00
68169;BME280;54981;50.206;15.978;2023-01-27T17:12:57;99249.84;;;-0.23;100.00
68169;BME280;54981;50.206;15.978;2023-01-27T17:16:06;99251.59;;;-0.27;100.00
68169;BME280;54981;50.206;15.978;2023-01-27T17:19:17;99248.16;;;-0.30;100.00
68169;BME280;54981;50.206;15.978;2023-01-27T17:22:33;99252.50;;;-0.26;100.00
68169;BME280;54981;50.206;15.978;2023-01-27T17:25:41;99260.38;;;-0.31;100.00
68169;BME280;54981;50.206;15.978;2023-01-27T17:28:44;99260.38;;;-0.31;100.00
68169;BME280;54981;50.206;15.978;2023-01-27T17:31:46;99260.34;;;-0.28;100.00
68169;BME280;54981;50.206;15.978;2023-01-27T17:34:51;99265.59;;;-0.26;100.00
68169;BME280;54981;50.206;15.978;2023-01-27T17:41:03;99267.31;;;-0.27;100.00